Forcalquier, France

05:07 CEST le 22 octobre 2014 (GMT +0200)
alpes du sud | Change Station
CLOSE
Current Station
Stations météorologiques personnelles
Location: SISTERON, SISTERON
Altitude: 1500 ft
Stations météo à proximité

Alt. 1500 ft 44.16 °N, 5.93 °E | Updated 6 minutes ago

Clear
Ciel dégagé
51.6 ° F
Paraît 51.6 ° F
N
14.0
Vent Variable Vent de SO
Gusts 26.0 mph

Aujourd'hui
Haut(e) -- | Bas -- ° F
--% Risque de précip.
Hier
Haut(e) -- | Bas -- ° F
Precip. -- pouce
7:59 AM 6:42 PM
Lune descendante, 3% visible
Pression 30.06 pouce
Visibilité 6.2 Miles terrestres
Nuages
Point de rosée 32 ° F
Humidité 48%
Précipitations 0.00 pouce
Profondeur de la couche neigeuse Non disponible.
UV Non disponible.
Pollen Non disponible.
Qualité de l'air Non disponible.
Flu Activity Non disponible.
METAR LFMY 220300Z AUTO 33027G40KT 9999 NSC 13/03 Q1018

More Conditions Fewer Conditions

Pression 30.06 pouce
Visibilité 6.2 Miles terrestres
Nuages
Point de rosée 32 ° F
Humidité 48%
Précipitations 0.00 pouce
Profondeur de la couche neigeuse Non disponible.
UV Non disponible.
Pollen Non disponible.
Qualité de l'air Non disponible.
Flu Activity Non disponible.
METAR LFMY 220300Z AUTO 33027G40KT 9999 NSC 13/03 Q1018

More Conditions Fewer Conditions

10-Day Weather Forecast

Almanac

Astronomie

Oct. 22, 2014 Lever Coucher
Temps réel 07:59 CEST 18:42 CEST
Crépuscule civil 07:30 CEST 19:11 CEST
Crépuscule nautique 06:56 CEST 19:45 CEST
Crépuscule astronomique 06:23 CEST 20:18 CEST
Lune 06:22 CEST 18:02 CEST
Durée de lumière visible 11h 40m
Longueur du jour
10h 42m
Tomorrow will be 2m 50s shorter.
Lune descendante, 3% of the Moon is Illuminated
Oct 21
Lune descendante
Oct 23
Nouveau
Oct 30
Premier quartier
Nov 6
Pleine lune
Nov 14
Dernier quartier

Les extrêmes de température d’hier

Country Highs Country Lows

Community

WunderPhotos

Upload Photos

1,763,866 Photos téléchargées !

Nearby

Qualité de l'air

Not available.

Épaisseur de neige

Not available.

Activité sismique

Ville Distance Mag. Time & Date
No recent earthquake activity has been reported nearby.
Minimum magnitude displayed is 2.5.

Températures des eaux côtières

Lieu Température
Aucun rapport de station

Stations météo à proximité